Time;durP1;ratioP1;P1;durP2;ratioP2;P2;SDS_P1;SDS_P2;PMS_P1;PMS_P2;Temp;Humidity;BMP_temperature;BMP_pressure;BME280_temperature;BME280_humidity;BME280_pressure;Samples;Min_cycle;Max_cycle;Signal;HPM_P1;HPM_P2
2022/05/12 00:00:35;;;;;;;17.88;5.43;;;;;;;10.48;33.63;98848.75;5032746;28;20033;-61
2022/05/12 00:03:01;;;;;;;28.00;5.50;;;;;;;10.27;33.78;98820.41;5039665;28;20051;-62
2022/05/12 00:05:26;;;;;;;21.92;5.13;;;;;;;10.43;33.52;98851.91;5039986;28;20109;-61
2022/05/12 00:07:52;;;;;;;12.48;5.00;;;;;;;10.44;33.32;98853.59;5014609;28;20029;-61
2022/05/12 00:10:23;;;;;;;24.83;5.55;;;;;;;10.47;33.64;98853.28;5031848;28;20485;-62
2022/05/12 00:12:48;;;;;;;18.80;5.03;;;;;;;10.45;33.80;98857.94;5037014;28;20033;-63
2022/05/12 00:15:18;;;;;;;18.90;5.47;;;;;;;10.47;33.89;98858.63;5052588;28;20028;-63
2022/05/12 00:17:44;;;;;;;19.77;5.13;;;;;;;10.42;33.82;98844.88;5034660;28;20133;-63
2022/05/12 00:20:15;;;;;;;20.45;5.18;;;;;;;10.45;33.42;98843.72;5031455;28;20104;-62
2022/05/12 00:22:40;;;;;;;18.95;4.55;;;;;;;10.37;33.89;98847.13;5035299;28;20033;-62
2022/05/12 00:25:11;;;;;;;13.30;4.75;;;;;;;10.19;33.80;98809.56;5052448;28;20031;-62
2022/05/12 00:27:36;;;;;;;11.52;4.10;;;;;;;10.35;34.23;98841.03;5050567;28;20036;-62
2022/05/12 00:30:04;;;;;;;16.88;5.28;;;;;;;10.31;34.08;98843.19;5047476;28;20033;-62
2022/05/12 00:32:30;;;;;;;17.60;5.15;;;;;;;10.32;34.33;98844.88;5033510;28;20088;-61
2022/05/12 00:34:56;;;;;;;15.35;4.88;;;;;;;10.31;34.86;98836.97;5052279;28;20029;-62
2022/05/12 00:37:21;;;;;;;14.93;5.10;;;;;;;10.27;34.77;98836.44;5052452;28;20035;-61
2022/05/12 00:39:47;;;;;;;12.68;4.97;;;;;;;10.28;34.45;98839.94;5042185;28;20088;-62
2022/05/12 00:42:12;;;;;;;16.73;5.03;;;;;;;10.22;34.65;98827.16;5014228;28;20052;-61
2022/05/12 00:44:38;;;;;;;14.55;4.45;;;;;;;10.23;34.57;98823.50;5050867;28;20025;-63
2022/05/12 00:47:03;;;;;;;12.75;4.72;;;;;;;10.25;34.58;98832.22;5036232;28;20444;-62
2022/05/12 00:49:34;;;;;;;16.77;4.57;;;;;;;10.28;34.56;98829.25;5031908;28;20037;-62
2022/05/12 00:52:15;;;;;;;9.38;4.57;;;;;;;10.36;34.49;98831.19;5032353;28;20052;-62
2022/05/12 00:54:49;;;;;;;11.18;4.30;;;;;;;10.41;34.09;98832.47;5050379;28;20036;-62
2022/05/12 00:57:20;;;;;;;11.13;4.65;;;;;;;10.38;34.21;98830.06;5017239;28;20031;-62
2022/05/12 00:59:46;;;;;;;15.02;5.03;;;;;;;10.38;34.05;98821.19;5051481;28;20040;-62
2022/05/12 01:02:18;;;;;;;14.77;4.82;;;;;;;10.52;33.67;98828.78;5052053;28;20068;-62
2022/05/12 01:04:47;;;;;;;8.98;3.97;;;;;;;10.53;33.84;98822.44;5013565;28;20485;-61
2022/05/12 01:07:12;;;;;;;7.45;4.35;;;;;;;10.54;33.65;98817.91;5041103;28;20038;-62
2022/05/12 01:09:38;;;;;;;13.82;4.90;;;;;;;10.57;33.92;98823.81;5048719;28;20070;-62
2022/05/12 01:12:04;;;;;;;10.98;4.43;;;;;;;10.53;34.08;98808.19;5028145;28;20064;-62
2022/05/12 01:14:29;;;;;;;13.25;4.82;;;;;;;10.57;34.50;98809.56;5013564;28;20033;-61
2022/05/12 01:17:00;;;;;;;13.07;4.60;;;;;;;10.59;34.43;98812.94;5032029;28;20025;-61
2022/05/12 01:19:29;;;;;;;14.18;4.97;;;;;;;10.54;34.04;98805.38;5031850;28;20041;-63
2022/05/12 01:21:56;;;;;;;12.35;4.60;;;;;;;10.53;34.31;98792.97;5031668;28;20033;-60
2022/05/12 01:24:32;;;;;;;13.45;4.97;;;;;;;10.56;34.47;98786.47;5031384;28;20041;-61
2022/05/12 01:27:18;;;;;;;11.98;4.78;;;;;;;10.57;34.18;98796.19;5026295;28;20033;-62
2022/05/12 01:29:43;;;;;;;9.48;4.57;;;;;;;10.60;34.89;98787.84;5031205;28;20381;-63
2022/05/12 01:32:10;;;;;;;9.93;4.57;;;;;;;10.62;34.95;98788.56;5031138;28;20045;-62
2022/05/12 01:34:35;;;;;;;12.65;4.53;;;;;;;10.68;34.13;98785.28;5047766;28;20063;-62
2022/05/12 01:37:01;;;;;;;16.38;4.85;;;;;;;10.76;34.32;98781.88;5051119;28;20033;-61
2022/05/12 01:39:26;;;;;;;16.50;5.22;;;;;;;10.86;34.55;98782.63;5051128;28;20114;-62
2022/05/12 01:41:52;;;;;;;13.88;4.75;;;;;;;10.94;34.81;98775.66;5051069;28;20171;-62
2022/05/12 01:44:17;;;;;;;16.40;4.97;;;;;;;11.06;34.63;98775.28;5035698;28;20503;-62
2022/05/12 01:46:43;;;;;;;14.45;5.60;;;;;;;11.21;34.58;98782.78;5012872;28;20036;-62
2022/05/12 01:49:08;;;;;;;21.77;4.82;;;;;;;11.34;34.16;98790.44;5031260;28;20175;-63
2022/05/12 01:51:35;;;;;;;15.23;5.45;;;;;;;11.48;33.84;98783.69;5043788;28;20174;-62
2022/05/12 01:54:01;;;;;;;14.93;5.35;;;;;;;11.58;33.55;98784.44;5028776;28;20367;-62
2022/05/12 01:56:27;;;;;;;14.35;6.10;;;;;;;11.67;33.83;98797.91;5030799;28;20037;-61
2022/05/12 01:58:52;;;;;;;12.82;5.32;;;;;;;11.75;34.83;98801.50;5030564;28;20033;-62
2022/05/12 02:01:17;;;;;;;20.48;5.93;;;;;;;11.83;34.53;98795.34;5012964;28;20317;-60
2022/05/12 02:03:43;;;;;;;15.18;5.53;;;;;;;11.90;33.63;98800.91;5012044;28;20563;-60
2022/05/12 02:06:08;;;;;;;16.02;6.25;;;;;;;11.95;33.36;98785.19;5030123;28;20095;-62
2022/05/12 02:08:34;;;;;;;14.45;6.43;;;;;;;12.06;33.07;98784.13;5039600;28;20338;-62
2022/05/12 02:10:59;;;;;;;18.42;6.43;;;;;;;12.09;34.25;98783.78;5049889;28;20373;-63
2022/05/12 02:13:27;;;;;;;13.85;5.78;;;;;;;12.15;33.92;98785.84;5046187;28;20037;-62
2022/05/12 02:15:54;;;;;;;17.15;6.47;;;;;;;12.07;33.08;98756.28;5022600;28;20520;-63
2022/05/12 02:18:21;;;;;;;15.70;6.55;;;;;;;12.11;33.08;98754.97;5037083;28;20082;-61
2022/05/12 02:20:47;;;;;;;20.10;6.72;;;;;;;12.30;33.01;98779.88;5032323;28;20029;-62
2022/05/12 02:23:12;;;;;;;16.88;6.45;;;;;;;12.34;32.88;98786.59;5045790;28;20410;-62
2022/05/12 02:25:38;;;;;;;17.60;5.70;;;;;;;12.40;33.04;98788.63;5012530;28;20033;-62
2022/05/12 02:28:04;;;;;;;17.17;5.82;;;;;;;12.42;33.12;98794.69;5017262;28;20041;-62
2022/05/12 02:30:31;;;;;;;13.63;5.93;;;;;;;12.48;33.33;98795.88;5050298;28;20442;-63
2022/05/12 02:32:57;;;;;;;16.98;5.45;;;;;;;12.55;33.43;98794.22;5050674;28;20044;-61
2022/05/12 02:35:23;;;;;;;13.70;5.28;;;;;;;12.63;33.48;98786.19;5050298;28;20029;-61
2022/05/12 02:37:49;;;;;;;12.60;6.10;;;;;;;12.75;32.77;98788.59;5047475;28;20045;-61
2022/05/12 02:40:18;;;;;;;15.88;5.50;;;;;;;12.78;32.83;98773.00;5030671;28;20037;-62
2022/05/12 02:42:43;;;;;;;17.02;5.82;;;;;;;12.75;33.16;98753.66;5030505;28;20091;-64
2022/05/12 02:45:09;;;;;;;15.73;5.20;;;;;;;12.98;33.53;98778.03;5029940;28;20043;-62
2022/05/12 02:47:35;;;;;;;16.67;5.40;;;;;;;13.05;33.35;98781.78;5012401;28;20025;-62
2022/05/12 02:50:01;;;;;;;11.13;4.97;;;;;;;13.14;32.92;98784.47;5050641;28;20100;-62
2022/05/12 02:52:26;;;;;;;14.68;4.85;;;;;;;13.03;32.64;98748.84;5049732;28;20060;-64
2022/05/12 02:54:52;;;;;;;12.80;5.28;;;;;;;13.29;32.58;98780.13;5050155;28;20426;-61
2022/05/12 02:57:18;;;;;;;10.00;5.15;;;;;;;13.35;32.56;98775.91;5032514;28;20036;-61
2022/05/12 02:59:43;;;;;;;10.77;4.95;;;;;;;13.48;32.81;98778.09;5013665;28;20033;-62
2022/05/12 03:02:09;;;;;;;10.02;5.20;;;;;;;13.58;32.45;98772.56;5012129;28;20454;-62
2022/05/12 03:04:35;;;;;;;14.05;5.70;;;;;;;13.63;32.47;98779.13;5048752;28;20040;-61
2022/05/12 03:07:00;;;;;;;12.27;5.35;;;;;;;13.70;32.42;98778.44;5050524;28;20433;-63
2022/05/12 03:09:26;;;;;;;11.52;4.78;;;;;;;13.71;32.15;98775.59;5034684;28;20116;-62
2022/05/12 03:11:51;;;;;;;9.82;4.78;;;;;;;13.84;32.05;98782.28;5029695;28;20114;-62
2022/05/12 03:14:17;;;;;;;9.10;4.63;;;;;;;13.91;31.85;98776.03;5041447;28;20044;-61
2022/05/12 03:16:42;;;;;;;14.95;4.72;;;;;;;13.86;32.02;98756.88;5049840;28;20542;-61
2022/05/12 03:19:08;;;;;;;12.18;5.00;;;;;;;13.87;32.01;98747.81;5039755;28;20034;-62
2022/05/12 03:21:34;;;;;;;12.90;5.35;;;;;;;14.00;31.91;98765.28;5015857;28;20183;-61
2022/05/12 03:24:00;;;;;;;17.67;5.20;;;;;;;13.99;32.43;98769.00;5034362;28;20128;-62
2022/05/12 03:26:25;;;;;;;11.45;5.03;;;;;;;13.99;32.11;98750.16;5015720;28;20442;-61
2022/05/12 03:28:51;;;;;;;15.93;5.15;;;;;;;14.13;32.09;98759.34;5034369;28;20495;-62
2022/05/12 03:31:16;;;;;;;15.93;5.53;;;;;;;13.86;31.95;98684.25;5032979;28;20571;-60
2022/05/12 03:33:42;;;;;;;8.60;5.28;;;;;;;14.26;31.78;98742.66;5033263;28;20025;-62
2022/05/12 03:36:08;;;;;;;17.17;4.95;;;;;;;14.40;32.06;98747.28;5033310;28;20088;-62
2022/05/12 03:38:34;;;;;;;13.73;4.75;;;;;;;14.51;31.61;98751.44;5045462;28;20086;-61
2022/05/12 03:41:00;;;;;;;15.15;5.47;;;;;;;14.56;31.77;98748.22;5035553;28;20364;-61
2022/05/12 03:46:13;;;;;;;13.43;5.40;;;;;;;14.70;31.91;98746.63;5053203;28;20045;-62
2022/05/12 03:48:40;;;;;;;13.60;5.00;;;;;;;14.64;31.32;98729.31;5040294;28;20451;-61
2022/05/12 03:51:06;;;;;;;11.82;5.00;;;;;;;14.76;31.73;98746.81;5014690;28;20030;-61
2022/05/12 03:53:32;;;;;;;11.02;4.95;;;;;;;14.78;31.66;98747.47;5046360;28;20037;-62
2022/05/12 03:55:59;;;;;;;13.60;4.72;;;;;;;14.84;31.45;98745.91;5052507;28;20063;-60
2022/05/12 03:58:25;;;;;;;15.25;4.70;;;;;;;14.92;31.71;98769.25;5030688;28;20389;-61
2022/05/12 04:00:51;;;;;;;10.85;4.85;;;;;;;14.93;31.50;98776.31;5032619;28;20048;-62
2022/05/12 04:03:17;;;;;;;14.05;4.97;;;;;;;14.95;31.68;98768.06;5033229;28;20037;-62
2022/05/12 04:05:43;;;;;;;15.32;5.00;;;;;;;14.93;31.56;98760.16;5045148;28;20039;-62
2022/05/12 04:08:08;;;;;;;16.40;5.40;;;;;;;14.84;31.88;98742.38;5043553;28;20108;-62
2022/05/12 04:10:35;;;;;;;18.65;5.40;;;;;;;14.99;31.65;98762.16;5032639;28;20469;-61
2022/05/12 04:13:00;;;;;;;11.20;4.53;;;;;;;15.02;31.69;98753.72;5032357;28;20481;-62
2022/05/12 04:15:26;;;;;;;14.52;4.68;;;;;;;15.05;31.64;98757.88;5031392;28;20036;-62
2022/05/12 04:18:05;;;;;;;12.70;5.20;;;;;;;15.19;31.30;98754.44;5041652;28;20028;-61
2022/05/12 04:20:32;;;;;;;11.82;4.65;;;;;;;15.14;31.55;98761.38;5052042;28;20112;-62
2022/05/12 04:22:57;;;;;;;17.17;4.40;;;;;;;15.11;31.33;98751.81;5052064;28;20112;-61
2022/05/12 04:25:24;;;;;;;11.43;4.15;;;;;;;15.20;31.30;98749.88;5034259;28;20120;-61
2022/05/12 04:27:50;;;;;;;10.50;4.93;;;;;;;15.28;31.30;98746.25;5050691;28;20049;-59
2022/05/12 04:30:18;;;;;;;13.40;4.80;;;;;;;15.42;31.30;98739.22;5021388;28;20044;-61
2022/05/12 04:32:44;;;;;;;9.98;4.45;;;;;;;15.50;31.51;98739.19;5014165;28;20389;-61
2022/05/12 04:35:12;;;;;;;16.00;4.93;;;;;;;15.64;31.18;98738.34;5043283;28;20025;-61
2022/05/12 04:37:45;;;;;;;10.30;4.40;;;;;;;15.77;31.01;98720.69;5022212;28;20474;-62
2022/05/12 04:40:15;;;;;;;9.65;4.30;;;;;;;16.10;30.82;98739.25;5038514;28;20022;-61
2022/05/12 04:42:41;;;;;;;8.52;4.05;;;;;;;16.09;30.91;98728.66;5041816;28;20033;-61
2022/05/12 04:45:09;;;;;;;16.13;3.75;;;;;;;16.17;30.96;98729.41;5040885;28;20033;-64
2022/05/12 04:47:36;;;;;;;12.43;4.10;;;;;;;16.29;30.88;98726.22;5041558;28;20045;-58
2022/05/12 04:50:03;;;;;;;9.27;4.03;;;;;;;16.43;30.68;98721.81;5021444;28;20036;-61
2022/05/12 04:52:29;;;;;;;9.38;4.25;;;;;;;16.72;30.31;98715.50;5038398;28;20025;-63
2022/05/12 04:54:55;;;;;;;10.00;4.20;;;;;;;16.99;30.00;98720.34;5039014;28;20083;-61
2022/05/12 04:57:21;;;;;;;10.80;4.00;;;;;;;16.96;30.17;98712.59;5023021;28;20462;-62
2022/05/12 04:59:49;;;;;;;10.15;4.05;;;;;;;16.94;30.27;98724.44;5039017;28;20033;-62
2022/05/12 05:02:15;;;;;;;10.73;3.75;;;;;;;16.86;30.60;98713.78;5038873;28;20155;-62
2022/05/12 05:04:40;;;;;;;8.75;4.55;;;;;;;16.79;30.77;98705.59;5040835;28;20056;-63
2022/05/12 05:07:06;;;;;;;11.98;3.88;;;;;;;16.77;30.64;98702.25;5039497;28;20032;-62
2022/05/12 05:09:32;;;;;;;12.75;5.90;;;;;;;16.73;30.83;98709.06;5039567;28;20029;-58
2022/05/12 05:11:58;;;;;;;12.90;4.40;;;;;;;16.71;31.06;98699.47;5041081;28;20122;-63
2022/05/12 05:14:23;;;;;;;8.25;3.75;;;;;;;16.73;31.29;98692.84;5039356;28;20478;-62
2022/05/12 05:16:49;;;;;;;7.65;3.78;;;;;;;16.75;31.04;98692.63;5038912;28;20033;-61
2022/05/12 05:19:16;;;;;;;7.90;3.90;;;;;;;16.82;31.20;98687.31;5041439;28;20021;-61
2022/05/12 05:21:42;;;;;;;6.13;3.10;;;;;;;16.96;30.99;98696.38;5020925;28;20437;-61
2022/05/12 05:24:08;;;;;;;7.47;3.47;;;;;;;17.04;31.36;98689.00;5035624;28;20029;-58
2022/05/12 05:26:34;;;;;;;6.20;3.15;;;;;;;17.08;31.09;98698.41;5041384;28;20041;-61
2022/05/12 05:29:00;;;;;;;8.30;3.50;;;;;;;17.13;30.81;98700.53;5039359;28;20048;-63
2022/05/12 05:31:25;;;;;;;7.65;3.60;;;;;;;17.19;30.93;98698.94;5025208;28;20435;-63
2022/05/12 05:33:51;;;;;;;8.13;3.30;;;;;;;17.24;31.39;98685.66;5050267;28;20123;-62
2022/05/12 05:36:17;;;;;;;7.22;3.20;;;;;;;17.41;30.89;98682.66;5041649;28;20113;-62
2022/05/12 05:38:42;;;;;;;9.45;3.67;;;;;;;17.75;30.29;98684.56;5043553;28;20029;-63
2022/05/12 05:41:09;;;;;;;13.18;4.20;;;;;;;18.16;29.75;98691.06;5047646;28;20084;-57
2022/05/12 05:43:35;;;;;;;10.45;3.97;;;;;;;18.45;29.49;98686.38;5040112;28;20041;-62
2022/05/12 05:46:01;;;;;;;11.57;4.25;;;;;;;18.76;29.36;98679.56;5037916;28;20040;-62
2022/05/12 05:48:26;;;;;;;10.20;3.97;;;;;;;19.26;28.44;98678.41;5040537;28;20446;-60
2022/05/12 05:53:38;;;;;;;11.05;3.78;;;;;;;20.89;26.55;98679.59;5031985;28;20032;-61
2022/05/12 05:56:15;;;;;;;6.50;3.78;;;;;;;21.43;25.82;98684.63;5037388;28;20672;-61
2022/05/12 05:58:42;;;;;;;12.02;3.80;;;;;;;22.06;25.11;98680.03;5038062;28;20128;-61
2022/05/12 06:01:07;;;;;;;7.32;3.67;;;;;;;23.04;23.59;98636.34;5040637;28;20032;-62
2022/05/12 06:03:33;;;;;;;9.88;4.00;;;;;;;25.08;21.00;98663.06;5038435;28;20021;-60
2022/05/12 06:05:58;;;;;;;11.15;4.18;;;;;;;28.61;17.58;98644.50;5040886;28;20469;-62
2022/05/12 06:08:24;;;;;;;7.15;3.72;;;;;;;32.07;14.46;98667.00;5049776;28;20056;-62
2022/05/12 06:10:50;;;;;;;6.88;3.63;;;;;;;35.30;11.67;98662.81;5050786;28;20374;-61
2022/05/12 06:13:16;;;;;;;11.05;3.92;;;;;;;36.59;10.52;98645.34;5032114;28;20029;-61
2022/05/12 06:15:42;;;;;;;11.70;3.90;;;;;;;35.41;11.16;98655.03;5037014;28;20110;-62
2022/05/12 06:18:17;;;;;;;8.88;4.00;;;;;;;34.19;13.01;98660.03;5031553;28;20084;-61
2022/05/12 06:20:43;;;;;;;11.38;4.40;;;;;;;32.54;13.37;98652.56;5030981;28;20456;-61
2022/05/12 06:23:11;;;;;;;12.23;4.15;;;;;;;33.54;12.64;98653.53;5030681;28;20044;-60
2022/05/12 06:25:37;;;;;;;10.90;3.75;;;;;;;34.52;11.51;98649.94;5030546;28;20125;-61
2022/05/12 06:28:03;;;;;;;11.93;4.05;;;;;;;34.65;11.75;98637.94;5046716;28;20532;-62
2022/05/12 06:30:29;;;;;;;10.00;4.72;;;;;;;35.02;11.35;98635.16;5049489;28;20132;-62
2022/05/12 06:32:56;;;;;;;11.80;4.60;;;;;;;34.28;11.51;98646.22;5030893;28;20503;-62
2022/05/12 06:35:23;;;;;;;13.55;4.22;;;;;;;33.75;12.12;98628.97;5048741;28;20421;-61
2022/05/12 06:37:49;;;;;;;15.07;4.93;;;;;;;33.35;12.28;98621.09;5048758;28;20107;-61
2022/05/12 06:40:16;;;;;;;11.32;4.50;;;;;;;33.24;12.58;98624.34;5039944;28;20037;-61
2022/05/12 06:42:42;;;;;;;13.43;4.55;;;;;;;33.09;12.74;98611.56;5029967;28;20413;-60
2022/05/12 06:45:10;;;;;;;12.50;3.97;;;;;;;33.27;12.28;98619.00;5031850;28;20055;-59
2022/05/12 06:47:35;;;;;;;10.68;4.57;;;;;;;33.40;12.24;98616.56;5042944;28;20086;-60
2022/05/12 06:50:03;;;;;;;12.88;4.22;;;;;;;33.06;12.25;98613.84;5048702;28;20033;-60
2022/05/12 06:52:30;;;;;;;9.52;4.03;;;;;;;32.19;13.40;98633.34;5048674;28;20037;-60
2022/05/12 06:54:56;;;;;;;11.55;4.28;;;;;;;31.29;13.95;98622.69;5054219;28;20051;-62
2022/05/12 06:57:27;;;;;;;11.90;3.90;;;;;;;30.43;14.96;98628.53;5043824;28;20111;-61
2022/05/12 06:59:53;;;;;;;9.98;4.32;;;;;;;29.49;15.50;98619.78;5045245;28;20033;-60
2022/05/12 07:02:18;;;;;;;14.05;4.43;;;;;;;28.97;16.44;98608.78;5052566;28;20029;-59
2022/05/12 07:04:45;;;;;;;12.30;4.22;;;;;;;28.49;16.80;98609.81;5046209;28;20042;-59
2022/05/12 07:07:11;;;;;;;15.02;4.10;;;;;;;27.70;17.76;98586.94;5046531;28;20044;-56
2022/05/12 07:09:37;;;;;;;11.38;4.10;;;;;;;27.19;18.50;98612.97;5047952;28;20022;-61
2022/05/12 07:12:03;;;;;;;11.65;4.47;;;;;;;26.74;19.04;98610.38;5036251;28;20037;-61
2022/05/12 07:14:29;;;;;;;7.63;3.80;;;;;;;26.54;19.05;98611.03;5033114;28;20034;-60
2022/05/12 07:16:54;;;;;;;13.35;4.43;;;;;;;26.77;18.74;98593.41;5041042;28;20124;-60
2022/05/12 07:19:20;;;;;;;7.75;4.18;;;;;;;28.29;17.42;98591.28;5015902;28;20029;-61
2022/05/12 07:27:16;;;;;;;11.88;4.43;;;;;;;31.81;14.38;98585.38;5036628;28;20037;-62
2022/05/12 07:29:42;;;;;;;13.55;3.60;;;;;;;31.78;14.71;98582.09;5038719;28;20081;-62
2022/05/12 07:32:08;;;;;;;9.43;3.75;;;;;;;32.57;13.91;98570.81;5043855;28;20041;-63
2022/05/12 07:34:34;;;;;;;7.93;3.70;;;;;;;34.10;12.66;98592.47;5053090;28;20373;-60
2022/05/12 07:37:00;;;;;;;9.25;3.42;;;;;;;35.80;11.48;98583.84;5051317;28;20492;-63
2022/05/12 07:39:29;;;;;;;8.40;3.50;;;;;;;36.66;11.00;98583.53;5051246;28;20094;-62
2022/05/12 07:42:00;;;;;;;6.85;3.53;;;;;;;36.01;11.58;98577.69;5048753;28;20484;-61
2022/05/12 07:44:32;;;;;;;9.30;3.58;;;;;;;34.70;12.12;98575.84;5052673;28;20041;-63
2022/05/12 07:47:00;;;;;;;8.30;2.95;;;;;;;34.13;12.83;98572.41;5047239;28;20041;-62
2022/05/12 07:49:28;;;;;;;8.93;3.38;;;;;;;35.09;12.12;98556.84;5032466;28;20034;-62
2022/05/12 07:51:54;;;;;;;9.07;3.60;;;;;;;36.04;11.45;98547.22;5032413;28;20040;-60
2022/05/12 07:54:20;;;;;;;6.35;3.17;;;;;;;36.61;11.26;98541.84;5032729;28;20021;-60
2022/05/12 07:56:45;;;;;;;9.85;3.72;;;;;;;36.76;10.90;98538.56;5033568;28;20037;-61
2022/05/12 07:59:11;;;;;;;9.55;3.58;;;;;;;37.98;10.23;98543.22;5032826;28;20104;-61
2022/05/12 08:01:38;;;;;;;6.55;3.50;;;;;;;37.87;10.03;98549.19;5032122;28;20021;-60
2022/05/12 08:04:04;;;;;;;8.18;3.40;;;;;;;36.87;10.90;98560.50;5031901;28;20042;-62
2022/05/12 08:06:31;;;;;;;6.57;3.17;;;;;;;36.97;11.23;98548.19;5042148;28;20046;-61
2022/05/12 08:08:57;;;;;;;11.55;3.70;;;;;;;37.68;10.39;98535.63;5052554;28;20056;-62
2022/05/12 08:11:24;;;;;;;9.30;3.30;;;;;;;37.87;10.36;98538.00;5050757;28;20024;-60
2022/05/12 08:13:50;;;;;;;6.43;3.15;;;;;;;37.09;10.97;98540.00;5033145;28;20095;-61
2022/05/12 08:16:18;;;;;;;6.38;2.97;;;;;;;35.71;11.86;98527.34;5032871;28;20041;-61
2022/05/12 08:18:46;;;;;;;7.13;3.15;;;;;;;34.44;12.87;98532.78;5052329;28;20083;-61
2022/05/12 08:21:13;;;;;;;9.07;3.05;;;;;;;33.09;14.26;98523.66;5043404;28;20026;-62
2022/05/12 08:23:39;;;;;;;5.13;3.20;;;;;;;31.79;15.25;98527.56;5050617;28;20059;-61
2022/05/12 08:26:04;;;;;;;5.70;2.85;;;;;;;30.69;16.73;98512.38;5052360;28;20123;-62
2022/05/12 08:28:30;;;;;;;8.23;3.33;;;;;;;30.10;17.73;98499.25;5039133;28;20469;-62
2022/05/12 08:30:56;;;;;;;6.05;3.35;;;;;;;29.73;17.77;98500.56;5050309;28;20037;-62
2022/05/12 08:33:22;;;;;;;6.78;3.58;;;;;;;29.39;18.11;98515.81;5050118;28;20115;-61
2022/05/12 08:35:48;;;;;;;9.45;3.35;;;;;;;29.29;18.41;98494.63;5051864;28;20021;-62
2022/05/12 08:38:15;;;;;;;7.03;3.08;;;;;;;29.25;18.42;98482.53;5049304;28;20029;-64
2022/05/12 08:40:52;;;;;;;7.18;3.50;;;;;;;29.21;18.34;98476.75;5037485;28;20041;-66
2022/05/12 08:43:34;;;;;;;5.68;3.17;;;;;;;29.57;18.34;98502.56;5043834;28;20102;-63
2022/05/12 08:46:05;;;;;;;7.65;3.33;;;;;;;29.17;19.01;98491.34;5051700;28;20025;-63
2022/05/12 08:48:30;;;;;;;5.50;3.58;;;;;;;28.60;20.29;98489.50;5049177;28;20366;-64
2022/05/12 08:50:56;;;;;;;4.88;3.30;;;;;;;28.10;20.48;98469.91;5044860;28;20036;-63
2022/05/12 08:53:26;;;;;;;11.85;3.65;;;;;;;28.16;20.75;98495.53;5031609;28;20037;-60
2022/05/12 08:55:57;;;;;;;10.63;3.88;;;;;;;28.01;20.94;98486.09;5031936;28;20073;-62
2022/05/12 08:58:38;;;;;;;8.23;3.42;;;;;;;27.93;21.03;98492.16;5032034;28;20057;-62
2022/05/12 09:01:23;;;;;;;12.88;3.75;;;;;;;27.75;21.64;98471.47;5038997;28;20485;-62
2022/05/12 09:03:58;;;;;;;9.90;4.15;;;;;;;28.12;20.96;98483.38;5032036;28;20045;-60
2022/05/12 09:06:32;;;;;;;7.20;3.63;;;;;;;28.21;21.30;98484.53;5050994;28;20083;-62
2022/05/12 09:09:09;;;;;;;12.10;3.67;;;;;;;28.27;21.08;98469.66;5051786;28;20033;-62
2022/05/12 09:12:01;;;;;;;8.07;3.88;;;;;;;28.20;21.13;98458.91;5050240;28;20044;-60
2022/05/12 09:14:41;;;;;;;10.95;3.78;;;;;;;27.89;21.82;98450.59;5044755;28;20029;-61
2022/05/12 09:17:10;;;;;;;8.02;3.03;;;;;;;27.47;21.73;98440.56;5035201;28;20116;-61
2022/05/12 09:19:36;;;;;;;3.40;2.85;;;;;;;27.00;22.32;98443.09;5051027;28;20846;-62
2022/05/12 09:22:01;;;;;;;5.57;3.38;;;;;;;26.79;23.06;98437.47;5037519;28;20033;-61
2022/05/12 09:24:27;;;;;;;3.67;3.15;;;;;;;26.73;23.46;98441.25;5050416;28;20104;-61
2022/05/12 09:27:13;;;;;;;10.18;3.70;;;;;;;27.12;22.64;98450.31;5039952;28;20029;-61
2022/05/12 09:29:47;;;;;;;6.55;3.67;;;;;;;27.20;22.79;98458.88;5036139;28;20047;-62
2022/05/12 09:32:13;;;;;;;4.65;3.13;;;;;;;27.10;22.89;98450.56;5049804;28;20128;-61
2022/05/12 09:34:42;;;;;;;6.97;3.30;;;;;;;27.21;22.34;98456.94;5045984;28;20145;-61
2022/05/12 09:37:17;;;;;;;6.55;3.13;;;;;;;27.26;22.46;98440.50;5030358;28;20029;-60
2022/05/12 09:39:46;;;;;;;7.75;3.05;;;;;;;27.11;22.59;98454.16;5031548;28;20519;-61
2022/05/12 09:42:27;;;;;;;5.15;3.05;;;;;;;26.97;22.96;98449.13;5031596;28;20029;-61
2022/05/12 09:44:58;;;;;;;6.53;3.38;;;;;;;26.68;23.25;98440.41;5030516;28;20071;-58
2022/05/12 09:47:26;;;;;;;5.93;3.10;;;;;;;26.39;23.44;98438.84;5031083;28;20362;-60
2022/05/12 09:50:20;;;;;;;4.78;3.17;;;;;;;26.49;22.87;98444.38;5044506;28;20067;-61
2022/05/12 09:52:57;;;;;;;4.78;3.15;;;;;;;26.56;22.73;98433.19;5030216;28;20121;-62
2022/05/12 09:55:27;;;;;;;4.68;3.20;;;;;;;26.30;23.72;98424.75;5029826;28;20045;-61
2022/05/12 09:58:25;;;;;;;7.55;3.20;;;;;;;26.34;22.62;98436.06;5042023;28;20040;-61
2022/05/12 10:01:11;;;;;;;5.45;3.92;;;;;;;25.94;23.23;98424.44;5032187;28;20151;-62
2022/05/12 10:09:28;;;;;;;6.13;3.20;;;;;;;25.09;25.00;98406.47;5050677;28;20036;-61
2022/05/12 10:12:00;;;;;;;8.65;3.47;;;;;;;25.00;25.26;98395.13;5038112;28;20040;-62
2022/05/12 10:14:57;;;;;;;7.45;3.50;;;;;;;25.33;24.46;98395.25;5030562;28;20541;-61
2022/05/12 10:17:32;;;;;;;7.43;3.20;;;;;;;25.30;24.55;98399.31;5012306;28;20363;-61
2022/05/12 10:20:02;;;;;;;8.65;3.45;;;;;;;25.14;24.97;98392.84;5030511;28;20112;-60
2022/05/12 10:22:38;;;;;;;5.20;3.20;;;;;;;25.10;25.12;98396.34;5031348;28;20072;-60
2022/05/12 10:25:23;;;;;;;5.97;3.40;;;;;;;25.05;25.93;98386.16;5038751;28;20369;-61
2022/05/12 10:27:52;;;;;;;5.90;3.85;;;;;;;25.23;25.38;98387.75;5052779;28;20467;-61
2022/05/12 10:30:45;;;;;;;6.05;3.85;;;;;;;25.47;24.94;98380.09;5055121;28;20056;-61
2022/05/12 10:33:16;;;;;;;7.68;3.50;;;;;;;25.38;25.31;98370.66;5034644;28;20045;-61
2022/05/12 10:35:41;;;;;;;7.00;3.88;;;;;;;25.23;25.67;98368.56;5034884;28;20036;-61
2022/05/12 10:38:12;;;;;;;5.57;3.45;;;;;;;25.33;25.21;98367.84;5034698;28;20022;-60
2022/05/12 10:40:45;;;;;;;7.22;3.80;;;;;;;25.50;25.34;98368.63;5034743;28;20083;-61
2022/05/12 10:43:13;;;;;;;6.57;3.38;;;;;;;25.52;25.33;98360.13;5034665;28;20044;-60
2022/05/12 10:45:48;;;;;;;6.90;3.55;;;;;;;25.64;25.05;98359.97;5035657;28;20029;-61
2022/05/12 10:48:37;;;;;;;5.65;3.50;;;;;;;25.71;24.82;98359.78;5054521;28;20044;-62
2022/05/12 10:51:05;;;;;;;6.43;3.30;;;;;;;25.49;25.38;98366.13;5049161;28;20437;-60
2022/05/12 10:53:49;;;;;;;7.35;2.90;;;;;;;25.29;25.33;98359.31;5034441;28;20564;-61
2022/05/12 10:56:23;;;;;;;7.05;3.10;;;;;;;25.22;25.28;98345.00;5034503;28;20041;-61
2022/05/12 10:59:14;;;;;;;6.77;3.37;;;;;;;25.42;25.05;98343.56;5034479;28;20080;-61
2022/05/12 11:01:57;;;;;;;9.75;3.28;;;;;;;25.62;24.69;98337.50;5021617;28;20281;-61
2022/05/12 11:04:36;;;;;;;4.57;3.47;;;;;;;25.70;24.78;98333.47;5034393;28;20171;-61
2022/05/12 11:07:08;;;;;;;5.07;3.20;;;;;;;25.69;25.14;98345.50;5034620;28;20041;-61
2022/05/12 11:09:56;;;;;;;5.45;2.72;;;;;;;25.53;24.98;98345.34;5034191;28;20029;-61
2022/05/12 11:12:30;;;;;;;10.50;3.45;;;;;;;25.22;25.64;98340.38;5034358;28;20491;-61
2022/05/12 11:15:14;;;;;;;5.43;3.35;;;;;;;24.99;25.23;98330.50;5034312;28;20127;-60
2022/05/12 11:17:51;;;;;;;5.65;2.83;;;;;;;24.69;26.63;98334.47;5034247;28;20033;-60
2022/05/12 11:20:33;;;;;;;4.85;3.30;;;;;;;24.63;26.64;98327.28;5033810;28;20029;-61
2022/05/12 11:23:15;;;;;;;6.88;3.22;;;;;;;24.79;26.20;98323.69;5050504;28;20086;-59
2022/05/12 11:26:01;;;;;;;7.03;3.17;;;;;;;25.10;25.27;98309.53;5052031;28;20470;-57
2022/05/12 11:31:25;;;;;;;8.35;2.80;;;;;;;25.58;23.98;98290.63;5050471;28;19927;-57
2022/05/12 11:33:55;;;;;;;7.28;2.63;;;;;;;25.70;23.69;98295.94;5036486;28;20461;-61
2022/05/12 11:36:35;;;;;;;3.33;2.60;;;;;;;25.74;23.79;98293.47;5043507;28;20033;-63
2022/05/12 11:39:37;;;;;;;5.95;3.00;;;;;;;26.01;23.98;98287.09;5032694;28;20030;-62
2022/05/12 11:42:15;;;;;;;8.32;3.15;;;;;;;26.01;24.18;98285.19;5033070;28;20036;-61
2022/05/12 11:45:27;;;;;;;5.93;3.10;;;;;;;26.17;23.79;98283.41;5051239;28;20500;-61
2022/05/12 11:48:28;;;;;;;7.57;3.08;;;;;;;26.08;23.83;98263.84;5035663;28;20465;-58
2022/05/12 11:51:26;;;;;;;4.32;3.13;;;;;;;26.22;23.56;98280.69;4933532;29;20044;-62
2022/05/12 11:54:01;;;;;;;8.00;3.50;;;;;;;25.91;24.09;98268.66;5033555;28;20029;-61
2022/05/12 11:56:57;;;;;;;3.85;3.17;;;;;;;25.95;23.99;98280.78;5033302;28;20034;-62
2022/05/12 11:59:31;;;;;;;6.40;3.03;;;;;;;25.75;24.34;98270.47;5031442;28;20037;-62